Alice, ND

5:17 PM CDT on July 29, 2016 (GMT -0500)
Valley City | | Change Station

Elev 1401 ft 46.94 °N, 98.02 °W | Updated 22 minutes ago

Mostly Cloudy
Mostly Cloudy
77 °F
Feels Like 77 °F
N
5
Wind Variable Wind from SW

Today
High -- | Low -- °F
--% Chance of Precip.
Yesterday
High -- | Low -- °F
Precip. -- in
Pressure 30.05 in
Visibility 10.0 miles
Clouds Scattered Clouds 4400 ft
Mostly Cloudy 6000 ft
Mostly Cloudy 7500 ft
Dew Point 63 °F
Humidity 61%
Rainfall 0.00 in
Snow Depth Not available.
6:08 AM 9:06 PM
Waning Crescent, 18% visible
METAR KBAC 292155Z AUTO 22004KT 10SM SCT044 BKN060 BKN075 25/17 A3005 RMK AO2
Pressure 30.05 in
Visibility 10.0 miles
Clouds Scattered Clouds 4400 ft
Mostly Cloudy 6000 ft
Mostly Cloudy 7500 ft
Dew Point 63 °F
Humidity 61%
Rainfall 0.00 in
Snow Depth Not available.
6:08 AM 9:06 PM
Waning Crescent, 18% visible
METAR KBAC 292155Z AUTO 22004KT 10SM SCT044 BKN060 BKN075 25/17 A3005 RMK AO2

10-Day Weather Forecast

Almanac

Astronomy

Jul. 29, 2016 Rise Set
Actual Time
Civil Twilight
Nautical Twilight
Astronomical Twilight
Moon
Length of Visible Light
Length of Day
Tomorrow will be .
, % of the Moon is Illuminated

Today's Extremes

State Highs State Lows

Community

WunderPhotos

Upload Photos

1,928,429 photos uploaded!

WunderBlog® & News

Nearby

Air Quality

  Air Quality AQ Index Pollutant
Not available.

Snow Depth

Station Depth Elevation

Earthquake Activity

City Distance Mag. Time & Date
Minimum magnitude displayed is 2.5.

Coastal Water Temperatures

Place Temperature

Stations

Nearby Weather Stations

Station Location Temp. Windchill Dew Point Humidity Wind Precip. Elev Updated Type
                   

Watches & Warnings

There are currently no watches in effect.